sensor_id;sensor_type;location;lat;lon;timestamp;temperature;humidity
774;DHT22;370;48.810;9.150;2023-03-23T00:00:59;15.00;1.00
774;DHT22;370;48.810;9.150;2023-03-23T00:03:26;15.00;1.00
774;DHT22;370;48.810;9.150;2023-03-23T00:05:55;15.00;1.00
774;DHT22;370;48.810;9.150;2023-03-23T00:08:25;15.00;1.00
774;DHT22;370;48.810;9.150;2023-03-23T00:10:52;15.00;1.00
774;DHT22;370;48.810;9.150;2023-03-23T00:13:22;15.00;1.00
774;DHT22;370;48.810;9.150;2023-03-23T00:15:49;15.00;1.00
774;DHT22;370;48.810;9.150;2023-03-23T00:18:17;15.00;1.00
774;DHT22;370;48.810;9.150;2023-03-23T00:20:49;15.00;1.00
774;DHT22;370;48.810;9.150;2023-03-23T00:23:18;14.90;1.00
774;DHT22;370;48.810;9.150;2023-03-23T00:25:47;14.90;1.00
774;DHT22;370;48.810;9.150;2023-03-23T00:28:14;14.80;1.00
774;DHT22;370;48.810;9.150;2023-03-23T00:30:41;14.80;1.00
774;DHT22;370;48.810;9.150;2023-03-23T00:33:11;14.80;1.00
774;DHT22;370;48.810;9.150;2023-03-23T00:35:40;14.80;1.00
774;DHT22;370;48.810;9.150;2023-03-23T00:38:07;14.80;1.00
774;DHT22;370;48.810;9.150;2023-03-23T00:40:35;14.70;1.00
774;DHT22;370;48.810;9.150;2023-03-23T00:43:03;14.70;1.00
774;DHT22;370;48.810;9.150;2023-03-23T00:45:30;14.80;1.00
774;DHT22;370;48.810;9.150;2023-03-23T00:48:00;14.80;1.00
774;DHT22;370;48.810;9.150;2023-03-23T00:50:27;14.70;1.00
774;DHT22;370;48.810;9.150;2023-03-23T00:52:54;14.70;1.00
774;DHT22;370;48.810;9.150;2023-03-23T00:55:22;14.70;1.00
774;DHT22;370;48.810;9.150;2023-03-23T00:57:50;14.70;1.00
774;DHT22;370;48.810;9.150;2023-03-23T01:00:18;14.70;1.00
774;DHT22;370;48.810;9.150;2023-03-23T01:02:45;14.70;1.00
774;DHT22;370;48.810;9.150;2023-03-23T01:05:12;14.70;1.00
774;DHT22;370;48.810;9.150;2023-03-23T01:07:40;14.70;1.00
774;DHT22;370;48.810;9.150;2023-03-23T01:10:07;14.70;1.00
774;DHT22;370;48.810;9.150;2023-03-23T01:12:34;14.70;1.00
774;DHT22;370;48.810;9.150;2023-03-23T01:15:03;14.70;1.00
774;DHT22;370;48.810;9.150;2023-03-23T01:17:30;14.70;1.00
774;DHT22;370;48.810;9.150;2023-03-23T01:19:56;14.70;1.00
774;DHT22;370;48.810;9.150;2023-03-23T01:22:23;14.60;1.00
774;DHT22;370;48.810;9.150;2023-03-23T01:24:50;14.60;1.00
774;DHT22;370;48.810;9.150;2023-03-23T01:27:17;14.60;1.00
774;DHT22;370;48.810;9.150;2023-03-23T01:29:44;14.50;1.00
774;DHT22;370;48.810;9.150;2023-03-23T01:32:12;14.50;1.00
774;DHT22;370;48.810;9.150;2023-03-23T01:34:39;14.50;1.00
774;DHT22;370;48.810;9.150;2023-03-23T01:37:05;14.50;1.00
774;DHT22;370;48.810;9.150;2023-03-23T01:39:32;14.60;1.00
774;DHT22;370;48.810;9.150;2023-03-23T01:41:59;14.50;1.00
774;DHT22;370;48.810;9.150;2023-03-23T01:45:17;14.50;1.00
774;DHT22;370;48.810;9.150;2023-03-23T01:47:50;14.50;1.00
774;DHT22;370;48.810;9.150;2023-03-23T01:50:18;14.50;1.00
774;DHT22;370;48.810;9.150;2023-03-23T01:52:48;14.40;1.00
774;DHT22;370;48.810;9.150;2023-03-23T01:55:16;14.30;1.00
774;DHT22;370;48.810;9.150;2023-03-23T01:57:43;14.40;1.00
774;DHT22;370;48.810;9.150;2023-03-23T02:00:12;14.40;1.00
774;DHT22;370;48.810;9.150;2023-03-23T02:02:41;14.30;1.00
774;DHT22;370;48.810;9.150;2023-03-23T02:05:13;14.20;1.00
774;DHT22;370;48.810;9.150;2023-03-23T02:07:41;14.20;1.00
774;DHT22;370;48.810;9.150;2023-03-23T02:10:08;14.20;1.00
774;DHT22;370;48.810;9.150;2023-03-23T02:12:35;14.20;1.00
774;DHT22;370;48.810;9.150;2023-03-23T02:15:03;14.10;1.00
774;DHT22;370;48.810;9.150;2023-03-23T02:17:35;14.10;1.00
774;DHT22;370;48.810;9.150;2023-03-23T02:20:18;14.10;1.00
774;DHT22;370;48.810;9.150;2023-03-23T02:23:09;14.10;1.00
774;DHT22;370;48.810;9.150;2023-03-23T02:25:58;14.10;1.00
774;DHT22;370;48.810;9.150;2023-03-23T02:28:45;14.00;1.00
774;DHT22;370;48.810;9.150;2023-03-23T02:31:35;14.10;1.00
774;DHT22;370;48.810;9.150;2023-03-23T02:34:07;14.10;1.00
774;DHT22;370;48.810;9.150;2023-03-23T02:36:39;14.20;1.00
774;DHT22;370;48.810;9.150;2023-03-23T02:39:10;14.10;1.00
774;DHT22;370;48.810;9.150;2023-03-23T02:41:42;14.10;1.00
774;DHT22;370;48.810;9.150;2023-03-23T02:44:12;14.10;1.00
774;DHT22;370;48.810;9.150;2023-03-23T02:46:40;14.10;1.00
774;DHT22;370;48.810;9.150;2023-03-23T02:49:11;14.20;1.00
774;DHT22;370;48.810;9.150;2023-03-23T02:51:39;14.10;1.00
774;DHT22;370;48.810;9.150;2023-03-23T02:54:07;14.10;1.00
774;DHT22;370;48.810;9.150;2023-03-23T02:56:35;14.10;1.00
774;DHT22;370;48.810;9.150;2023-03-23T02:59:02;14.10;1.00
774;DHT22;370;48.810;9.150;2023-03-23T03:01:50;14.10;1.00
774;DHT22;370;48.810;9.150;2023-03-23T03:04:22;14.10;1.00
774;DHT22;370;48.810;9.150;2023-03-23T03:07:00;14.10;1.00
774;DHT22;370;48.810;9.150;2023-03-23T03:09:33;14.10;1.00
774;DHT22;370;48.810;9.150;2023-03-23T03:12:07;14.10;1.00
774;DHT22;370;48.810;9.150;2023-03-23T03:14:37;14.20;1.00
774;DHT22;370;48.810;9.150;2023-03-23T03:17:10;14.20;1.00
774;DHT22;370;48.810;9.150;2023-03-23T03:19:45;14.30;1.00
774;DHT22;370;48.810;9.150;2023-03-23T03:22:13;14.30;1.00
774;DHT22;370;48.810;9.150;2023-03-23T03:24:41;14.30;1.00
774;DHT22;370;48.810;9.150;2023-03-23T03:27:12;14.30;1.00
774;DHT22;370;48.810;9.150;2023-03-23T03:29:41;14.30;1.00
774;DHT22;370;48.810;9.150;2023-03-23T03:32:11;14.30;1.00
774;DHT22;370;48.810;9.150;2023-03-23T03:34:38;14.40;1.00
774;DHT22;370;48.810;9.150;2023-03-23T03:37:06;14.40;1.00
774;DHT22;370;48.810;9.150;2023-03-23T03:39:35;14.40;1.00
774;DHT22;370;48.810;9.150;2023-03-23T03:42:03;14.50;1.00
774;DHT22;370;48.810;9.150;2023-03-23T03:44:30;14.50;1.00
774;DHT22;370;48.810;9.150;2023-03-23T03:46:57;14.50;1.00
774;DHT22;370;48.810;9.150;2023-03-23T03:49:24;14.50;1.00
774;DHT22;370;48.810;9.150;2023-03-23T03:51:51;14.50;1.00
774;DHT22;370;48.810;9.150;2023-03-23T03:54:19;14.50;1.00
774;DHT22;370;48.810;9.150;2023-03-23T03:56:46;14.60;1.00
774;DHT22;370;48.810;9.150;2023-03-23T03:59:13;14.60;1.00
774;DHT22;370;48.810;9.150;2023-03-23T04:01:40;14.60;1.00
774;DHT22;370;48.810;9.150;2023-03-23T04:04:06;14.60;1.00
774;DHT22;370;48.810;9.150;2023-03-23T04:06:33;14.60;1.00
774;DHT22;370;48.810;9.150;2023-03-23T04:09:02;14.70;1.00
774;DHT22;370;48.810;9.150;2023-03-23T04:11:33;14.70;1.00
774;DHT22;370;48.810;9.150;2023-03-23T04:14:00;14.70;1.00
774;DHT22;370;48.810;9.150;2023-03-23T04:16:28;14.70;1.00
774;DHT22;370;48.810;9.150;2023-03-23T04:18:55;14.80;1.00
774;DHT22;370;48.810;9.150;2023-03-23T04:21:22;14.80;1.00
774;DHT22;370;48.810;9.150;2023-03-23T04:23:49;14.80;1.00
774;DHT22;370;48.810;9.150;2023-03-23T04:26:16;14.80;1.00
774;DHT22;370;48.810;9.150;2023-03-23T04:28:45;14.80;1.00
774;DHT22;370;48.810;9.150;2023-03-23T04:31:12;14.80;1.00
774;DHT22;370;48.810;9.150;2023-03-23T04:33:40;14.90;1.00
774;DHT22;370;48.810;9.150;2023-03-23T04:36:07;14.90;1.00
774;DHT22;370;48.810;9.150;2023-03-23T04:38:34;14.90;1.00
774;DHT22;370;48.810;9.150;2023-03-23T04:41:01;14.90;1.00
774;DHT22;370;48.810;9.150;2023-03-23T04:43:29;14.80;1.00
774;DHT22;370;48.810;9.150;2023-03-23T04:45:59;14.90;1.00
774;DHT22;370;48.810;9.150;2023-03-23T04:48:29;14.90;1.00
774;DHT22;370;48.810;9.150;2023-03-23T04:50:58;15.00;1.00
774;DHT22;370;48.810;9.150;2023-03-23T04:53:28;14.90;1.00
774;DHT22;370;48.810;9.150;2023-03-23T04:55:55;14.90;1.00
774;DHT22;370;48.810;9.150;2023-03-23T04:58:22;14.90;1.00
774;DHT22;370;48.810;9.150;2023-03-23T05:00:50;14.90;1.00
774;DHT22;370;48.810;9.150;2023-03-23T05:03:18;14.90;1.00
774;DHT22;370;48.810;9.150;2023-03-23T05:05:46;15.00;1.00
774;DHT22;370;48.810;9.150;2023-03-23T05:08:17;15.00;1.00
774;DHT22;370;48.810;9.150;2023-03-23T05:10:50;15.00;1.00
774;DHT22;370;48.810;9.150;2023-03-23T05:13:17;15.00;1.00
774;DHT22;370;48.810;9.150;2023-03-23T05:15:44;15.00;1.00
774;DHT22;370;48.810;9.150;2023-03-23T05:18:11;15.00;1.00
774;DHT22;370;48.810;9.150;2023-03-23T05:20:39;15.00;1.00
774;DHT22;370;48.810;9.150;2023-03-23T05:23:07;15.00;1.00
774;DHT22;370;48.810;9.150;2023-03-23T05:25:34;15.10;1.00
774;DHT22;370;48.810;9.150;2023-03-23T05:28:05;15.10;1.00
774;DHT22;370;48.810;9.150;2023-03-23T05:30:32;15.10;1.00
774;DHT22;370;48.810;9.150;2023-03-23T05:32:59;15.10;1.00
774;DHT22;370;48.810;9.150;2023-03-23T05:35:26;15.20;1.00
774;DHT22;370;48.810;9.150;2023-03-23T05:37:55;15.20;1.00
774;DHT22;370;48.810;9.150;2023-03-23T05:40:21;15.20;1.00
774;DHT22;370;48.810;9.150;2023-03-23T05:42:51;15.20;1.00
774;DHT22;370;48.810;9.150;2023-03-23T05:45:18;15.20;1.00
774;DHT22;370;48.810;9.150;2023-03-23T05:47:45;15.30;1.00
774;DHT22;370;48.810;9.150;2023-03-23T05:50:13;15.40;1.00
774;DHT22;370;48.810;9.150;2023-03-23T05:52:40;15.40;1.00
774;DHT22;370;48.810;9.150;2023-03-23T05:55:09;15.40;1.00
774;DHT22;370;48.810;9.150;2023-03-23T05:57:36;15.50;1.00
774;DHT22;370;48.810;9.150;2023-03-23T06:00:05;15.50;1.00
774;DHT22;370;48.810;9.150;2023-03-23T06:02:39;15.50;1.00
774;DHT22;370;48.810;9.150;2023-03-23T06:05:09;15.50;1.00
774;DHT22;370;48.810;9.150;2023-03-23T06:07:36;15.60;1.00
774;DHT22;370;48.810;9.150;2023-03-23T06:10:03;15.70;1.00
774;DHT22;370;48.810;9.150;2023-03-23T06:12:32;15.70;1.00
774;DHT22;370;48.810;9.150;2023-03-23T06:14:59;15.70;1.00
774;DHT22;370;48.810;9.150;2023-03-23T06:17:26;15.70;1.00
774;DHT22;370;48.810;9.150;2023-03-23T06:19:53;15.80;1.00
774;DHT22;370;48.810;9.150;2023-03-23T06:22:20;15.90;1.00
774;DHT22;370;48.810;9.150;2023-03-23T06:24:46;15.90;1.00
774;DHT22;370;48.810;9.150;2023-03-23T06:27:14;15.80;1.00
774;DHT22;370;48.810;9.150;2023-03-23T06:29:43;15.80;1.00
774;DHT22;370;48.810;9.150;2023-03-23T06:32:10;15.70;1.00
774;DHT22;370;48.810;9.150;2023-03-23T06:34:38;15.70;1.00
774;DHT22;370;48.810;9.150;2023-03-23T06:37:06;15.70;1.00
774;DHT22;370;48.810;9.150;2023-03-23T06:39:32;15.70;1.00
774;DHT22;370;48.810;9.150;2023-03-23T06:41:59;15.60;1.00
774;DHT22;370;48.810;9.150;2023-03-23T06:44:26;15.60;1.00
774;DHT22;370;48.810;9.150;2023-03-23T06:46:54;15.50;1.00
774;DHT22;370;48.810;9.150;2023-03-23T06:49:21;15.50;1.00
774;DHT22;370;48.810;9.150;2023-03-23T06:51:48;15.50;1.00
774;DHT22;370;48.810;9.150;2023-03-23T06:54:15;15.70;1.00
774;DHT22;370;48.810;9.150;2023-03-23T06:56:42;16.00;1.00
774;DHT22;370;48.810;9.150;2023-03-23T06:59:08;16.10;1.00
774;DHT22;370;48.810;9.150;2023-03-23T07:01:35;16.30;1.00
774;DHT22;370;48.810;9.150;2023-03-23T07:04:05;16.50;1.00
774;DHT22;370;48.810;9.150;2023-03-23T07:06:31;16.50;1.00
774;DHT22;370;48.810;9.150;2023-03-23T07:08:58;16.50;1.00
774;DHT22;370;48.810;9.150;2023-03-23T07:11:25;16.50;1.00
774;DHT22;370;48.810;9.150;2023-03-23T07:13:52;16.40;1.00
774;DHT22;370;48.810;9.150;2023-03-23T07:16:19;16.50;1.00
774;DHT22;370;48.810;9.150;2023-03-23T07:18:46;16.40;1.00
774;DHT22;370;48.810;9.150;2023-03-23T07:21:14;16.40;1.00
774;DHT22;370;48.810;9.150;2023-03-23T07:23:41;16.50;1.00
774;DHT22;370;48.810;9.150;2023-03-23T07:26:08;16.40;1.00
774;DHT22;370;48.810;9.150;2023-03-23T07:28:35;16.40;1.00
774;DHT22;370;48.810;9.150;2023-03-23T07:31:02;16.40;1.00
774;DHT22;370;48.810;9.150;2023-03-23T07:33:28;16.40;1.00
774;DHT22;370;48.810;9.150;2023-03-23T07:35:58;16.50;1.00
774;DHT22;370;48.810;9.150;2023-03-23T07:38:27;16.80;1.00
774;DHT22;370;48.810;9.150;2023-03-23T07:40:54;16.80;1.00
774;DHT22;370;48.810;9.150;2023-03-23T07:43:22;17.00;1.00
774;DHT22;370;48.810;9.150;2023-03-23T07:45:49;17.20;1.00
774;DHT22;370;48.810;9.150;2023-03-23T07:48:16;17.30;1.00
774;DHT22;370;48.810;9.150;2023-03-23T07:50:42;17.60;1.00
774;DHT22;370;48.810;9.150;2023-03-23T07:53:09;17.70;1.00
774;DHT22;370;48.810;9.150;2023-03-23T07:55:38;18.00;1.00
774;DHT22;370;48.810;9.150;2023-03-23T07:58:05;18.40;1.00
774;DHT22;370;48.810;9.150;2023-03-23T08:00:31;18.80;1.00
774;DHT22;370;48.810;9.150;2023-03-23T08:02:58;19.10;1.00
774;DHT22;370;48.810;9.150;2023-03-23T08:05:26;19.20;1.00
774;DHT22;370;48.810;9.150;2023-03-23T08:07:54;19.30;1.00
774;DHT22;370;48.810;9.150;2023-03-23T08:10:22;19.40;1.00
774;DHT22;370;48.810;9.150;2023-03-23T08:12:53;19.30;1.00
774;DHT22;370;48.810;9.150;2023-03-23T08:15:21;19.30;1.00
774;DHT22;370;48.810;9.150;2023-03-23T08:17:49;19.30;1.00
774;DHT22;370;48.810;9.150;2023-03-23T08:20:17;19.30;1.00
774;DHT22;370;48.810;9.150;2023-03-23T08:22:49;19.30;1.00
774;DHT22;370;48.810;9.150;2023-03-23T08:25:16;19.20;1.00
774;DHT22;370;48.810;9.150;2023-03-23T08:27:43;19.20;1.00
774;DHT22;370;48.810;9.150;2023-03-23T08:30:13;19.20;1.00
774;DHT22;370;48.810;9.150;2023-03-23T08:32:40;19.20;1.00
774;DHT22;370;48.810;9.150;2023-03-23T08:35:08;19.20;1.00
774;DHT22;370;48.810;9.150;2023-03-23T08:37:36;19.20;1.00
774;DHT22;370;48.810;9.150;2023-03-23T08:40:05;19.20;1.00
774;DHT22;370;48.810;9.150;2023-03-23T08:42:36;19.20;1.00
774;DHT22;370;48.810;9.150;2023-03-23T08:45:05;19.00;1.00
774;DHT22;370;48.810;9.150;2023-03-23T08:47:34;18.80;1.00
774;DHT22;370;48.810;9.150;2023-03-23T08:50:01;18.60;1.00
774;DHT22;370;48.810;9.150;2023-03-23T08:52:28;18.40;1.00
774;DHT22;370;48.810;9.150;2023-03-23T08:54:55;18.20;1.00
774;DHT22;370;48.810;9.150;2023-03-23T08:57:22;18.20;1.00
774;DHT22;370;48.810;9.150;2023-03-23T08:59:49;18.00;1.00
774;DHT22;370;48.810;9.150;2023-03-23T09:02:17;17.80;1.00
774;DHT22;370;48.810;9.150;2023-03-23T09:04:45;17.80;1.00
774;DHT22;370;48.810;9.150;2023-03-23T09:07:12;18.20;1.00
774;DHT22;370;48.810;9.150;2023-03-23T09:09:40;18.40;1.00
774;DHT22;370;48.810;9.150;2023-03-23T09:12:07;18.40;1.00
774;DHT22;370;48.810;9.150;2023-03-23T09:14:35;18.40;1.00
774;DHT22;370;48.810;9.150;2023-03-23T09:17:02;18.30;1.00
774;DHT22;370;48.810;9.150;2023-03-23T09:19:29;18.20;1.00
774;DHT22;370;48.810;9.150;2023-03-23T09:21:57;18.20;1.00
774;DHT22;370;48.810;9.150;2023-03-23T09:24:24;18.20;1.00
774;DHT22;370;48.810;9.150;2023-03-23T09:26:51;18.40;1.00
774;DHT22;370;48.810;9.150;2023-03-23T09:29:18;18.50;1.00
774;DHT22;370;48.810;9.150;2023-03-23T09:31:46;18.70;1.00
774;DHT22;370;48.810;9.150;2023-03-23T09:34:13;18.70;1.00
774;DHT22;370;48.810;9.150;2023-03-23T09:36:40;18.90;1.00
774;DHT22;370;48.810;9.150;2023-03-23T09:39:10;18.90;1.00
774;DHT22;370;48.810;9.150;2023-03-23T09:41:49;19.00;1.00
774;DHT22;370;48.810;9.150;2023-03-23T09:44:24;18.90;1.00
774;DHT22;370;48.810;9.150;2023-03-23T09:46:58;18.80;1.00
774;DHT22;370;48.810;9.150;2023-03-23T09:49:28;18.80;1.00
774;DHT22;370;48.810;9.150;2023-03-23T09:52:03;18.50;1.00
774;DHT22;370;48.810;9.150;2023-03-23T09:54:34;18.50;1.00
774;DHT22;370;48.810;9.150;2023-03-23T09:57:03;18.50;1.00
774;DHT22;370;48.810;9.150;2023-03-23T09:59:34;18.70;1.00
774;DHT22;370;48.810;9.150;2023-03-23T10:02:11;19.10;1.00
774;DHT22;370;48.810;9.150;2023-03-23T10:04:43;19.60;1.00
774;DHT22;370;48.810;9.150;2023-03-23T10:07:13;19.80;1.00
774;DHT22;370;48.810;9.150;2023-03-23T10:09:45;19.70;1.00
774;DHT22;370;48.810;9.150;2023-03-23T10:12:21;19.60;1.00
774;DHT22;370;48.810;9.150;2023-03-23T10:15:04;19.60;1.00
774;DHT22;370;48.810;9.150;2023-03-23T10:17:41;20.10;1.00
774;DHT22;370;48.810;9.150;2023-03-23T10:20:32;20.40;1.00
774;DHT22;370;48.810;9.150;2023-03-23T10:23:05;20.50;1.00
774;DHT22;370;48.810;9.150;2023-03-23T10:28:32;20.30;1.00
774;DHT22;370;48.810;9.150;2023-03-23T10:31:01;20.20;1.00
774;DHT22;370;48.810;9.150;2023-03-23T10:33:33;20.30;1.00
774;DHT22;370;48.810;9.150;2023-03-23T10:36:05;20.40;1.00
774;DHT22;370;48.810;9.150;2023-03-23T10:38:35;20.30;1.00
774;DHT22;370;48.810;9.150;2023-03-23T10:41:09;20.20;1.00
774;DHT22;370;48.810;9.150;2023-03-23T10:43:37;20.10;1.00
774;DHT22;370;48.810;9.150;2023-03-23T10:46:14;20.00;1.00
774;DHT22;370;48.810;9.150;2023-03-23T10:48:44;19.80;1.00
774;DHT22;370;48.810;9.150;2023-03-23T10:51:17;19.60;1.00
774;DHT22;370;48.810;9.150;2023-03-23T10:53:49;19.40;1.00
774;DHT22;370;48.810;9.150;2023-03-23T10:56:23;19.50;1.00
774;DHT22;370;48.810;9.150;2023-03-23T10:58:51;19.40;1.00
774;DHT22;370;48.810;9.150;2023-03-23T11:01:20;19.50;1.00
774;DHT22;370;48.810;9.150;2023-03-23T11:03:48;20.10;1.00
774;DHT22;370;48.810;9.150;2023-03-23T11:06:20;20.30;1.00
774;DHT22;370;48.810;9.150;2023-03-23T11:08:51;20.40;1.00
774;DHT22;370;48.810;9.150;2023-03-23T11:11:24;20.30;1.00
774;DHT22;370;48.810;9.150;2023-03-23T11:13:57;20.10;1.00
774;DHT22;370;48.810;9.150;2023-03-23T11:16:26;20.00;1.00
774;DHT22;370;48.810;9.150;2023-03-23T11:18:54;19.90;1.00
774;DHT22;370;48.810;9.150;2023-03-23T11:21:22;19.90;1.00
774;DHT22;370;48.810;9.150;2023-03-23T11:23:51;19.90;1.00
774;DHT22;370;48.810;9.150;2023-03-23T11:26:23;19.80;1.00
774;DHT22;370;48.810;9.150;2023-03-23T11:28:56;19.40;1.00
774;DHT22;370;48.810;9.150;2023-03-23T11:31:26;19.10;1.00
774;DHT22;370;48.810;9.150;2023-03-23T11:33:57;19.30;1.00
774;DHT22;370;48.810;9.150;2023-03-23T11:36:33;19.70;1.00
774;DHT22;370;48.810;9.150;2023-03-23T11:39:02;20.30;1.00
774;DHT22;370;48.810;9.150;2023-03-23T11:41:37;20.50;1.00
774;DHT22;370;48.810;9.150;2023-03-23T11:44:10;20.80;1.00
774;DHT22;370;48.810;9.150;2023-03-23T11:46:44;20.90;1.00
774;DHT22;370;48.810;9.150;2023-03-23T11:49:20;20.80;1.00
774;DHT22;370;48.810;9.150;2023-03-23T11:51:54;20.50;1.00
774;DHT22;370;48.810;9.150;2023-03-23T11:54:28;20.50;1.00
774;DHT22;370;48.810;9.150;2023-03-23T11:56:58;20.40;1.00
774;DHT22;370;48.810;9.150;2023-03-23T11:59:29;20.50;1.00
774;DHT22;370;48.810;9.150;2023-03-23T12:02:06;20.60;1.00
774;DHT22;370;48.810;9.150;2023-03-23T12:04:47;20.60;1.00
774;DHT22;370;48.810;9.150;2023-03-23T12:07:29;20.70;1.00
774;DHT22;370;48.810;9.150;2023-03-23T12:10:10;20.90;1.00
774;DHT22;370;48.810;9.150;2023-03-23T12:12:43;20.90;1.00
774;DHT22;370;48.810;9.150;2023-03-23T12:15:20;20.70;1.00
774;DHT22;370;48.810;9.150;2023-03-23T12:17:56;20.70;1.00
774;DHT22;370;48.810;9.150;2023-03-23T12:20:31;20.70;1.00
774;DHT22;370;48.810;9.150;2023-03-23T12:23:08;20.90;1.00
774;DHT22;370;48.810;9.150;2023-03-23T12:26:00;21.00;1.00
774;DHT22;370;48.810;9.150;2023-03-23T12:28:41;21.20;1.00
774;DHT22;370;48.810;9.150;2023-03-23T12:31:15;21.50;1.00
774;DHT22;370;48.810;9.150;2023-03-23T12:33:50;21.80;1.00
774;DHT22;370;48.810;9.150;2023-03-23T12:36:30;21.90;1.00
774;DHT22;370;48.810;9.150;2023-03-23T12:41:50;22.00;1.00
774;DHT22;370;48.810;9.150;2023-03-23T12:44:23;22.50;1.00
774;DHT22;370;48.810;9.150;2023-03-23T12:47:06;22.60;1.00
774;DHT22;370;48.810;9.150;2023-03-23T12:49:38;23.20;1.00
774;DHT22;370;48.810;9.150;2023-03-23T12:52:13;23.50;1.00
774;DHT22;370;48.810;9.150;2023-03-23T12:54:47;23.80;1.00
774;DHT22;370;48.810;9.150;2023-03-23T12:57:23;23.50;1.00
774;DHT22;370;48.810;9.150;2023-03-23T12:59:56;23.30;1.00
774;DHT22;370;48.810;9.150;2023-03-23T13:02:27;22.90;1.00
774;DHT22;370;48.810;9.150;2023-03-23T13:05:00;22.40;1.00
774;DHT22;370;48.810;9.150;2023-03-23T13:07:33;21.90;1.00
774;DHT22;370;48.810;9.150;2023-03-23T13:10:04;21.60;1.00
774;DHT22;370;48.810;9.150;2023-03-23T13:12:34;21.60;1.00
774;DHT22;370;48.810;9.150;2023-03-23T13:15:16;21.80;1.00
774;DHT22;370;48.810;9.150;2023-03-23T13:17:51;21.70;1.00
774;DHT22;370;48.810;9.150;2023-03-23T13:20:39;21.60;1.00
774;DHT22;370;48.810;9.150;2023-03-23T13:23:11;21.50;1.00
774;DHT22;370;48.810;9.150;2023-03-23T13:25:48;21.50;1.00
774;DHT22;370;48.810;9.150;2023-03-23T13:28:16;21.60;1.00
774;DHT22;370;48.810;9.150;2023-03-23T13:31:01;21.70;1.00
774;DHT22;370;48.810;9.150;2023-03-23T13:33:31;21.60;1.00
774;DHT22;370;48.810;9.150;2023-03-23T13:36:08;21.50;1.00
774;DHT22;370;48.810;9.150;2023-03-23T13:38:36;21.60;1.00
774;DHT22;370;48.810;9.150;2023-03-23T13:41:09;21.70;1.00
774;DHT22;370;48.810;9.150;2023-03-23T13:43:38;21.80;1.00
774;DHT22;370;48.810;9.150;2023-03-23T13:46:22;21.90;1.00
774;DHT22;370;48.810;9.150;2023-03-23T13:49:03;22.10;1.00
774;DHT22;370;48.810;9.150;2023-03-23T13:51:36;22.10;1.00
774;DHT22;370;48.810;9.150;2023-03-23T13:54:15;21.80;1.00
774;DHT22;370;48.810;9.150;2023-03-23T13:56:52;21.60;1.00
774;DHT22;370;48.810;9.150;2023-03-23T13:59:30;21.40;1.00
774;DHT22;370;48.810;9.150;2023-03-23T14:02:32;21.10;1.00
774;DHT22;370;48.810;9.150;2023-03-23T14:05:10;20.90;1.00
774;DHT22;370;48.810;9.150;2023-03-23T14:07:52;20.70;1.00
774;DHT22;370;48.810;9.150;2023-03-23T14:10:20;20.60;1.00
774;DHT22;370;48.810;9.150;2023-03-23T14:12:50;20.70;1.00
774;DHT22;370;48.810;9.150;2023-03-23T14:15:18;20.80;1.00
774;DHT22;370;48.810;9.150;2023-03-23T14:17:47;20.90;1.00
774;DHT22;370;48.810;9.150;2023-03-23T14:20:21;20.90;1.00
774;DHT22;370;48.810;9.150;2023-03-23T14:22:53;21.10;1.00
774;DHT22;370;48.810;9.150;2023-03-23T14:25:21;21.20;1.00
774;DHT22;370;48.810;9.150;2023-03-23T14:27:51;21.20;1.00
774;DHT22;370;48.810;9.150;2023-03-23T14:30:20;21.20;1.00
774;DHT22;370;48.810;9.150;2023-03-23T14:32:49;21.30;1.00
774;DHT22;370;48.810;9.150;2023-03-23T14:35:20;21.20;1.00
774;DHT22;370;48.810;9.150;2023-03-23T14:37:48;20.60;1.00
774;DHT22;370;48.810;9.150;2023-03-23T14:40:17;20.70;1.00
774;DHT22;370;48.810;9.150;2023-03-23T14:42:45;20.80;1.00
774;DHT22;370;48.810;9.150;2023-03-23T14:45:16;20.90;1.00
774;DHT22;370;48.810;9.150;2023-03-23T14:47:45;20.80;1.00
774;DHT22;370;48.810;9.150;2023-03-23T14:50:28;20.70;1.00
774;DHT22;370;48.810;9.150;2023-03-23T14:53:01;20.70;1.00
774;DHT22;370;48.810;9.150;2023-03-23T14:55:30;20.70;1.00
774;DHT22;370;48.810;9.150;2023-03-23T14:58:06;20.70;1.00
774;DHT22;370;48.810;9.150;2023-03-23T15:00:37;20.60;1.00
774;DHT22;370;48.810;9.150;2023-03-23T15:03:09;20.60;1.00
774;DHT22;370;48.810;9.150;2023-03-23T15:05:42;20.50;1.00
774;DHT22;370;48.810;9.150;2023-03-23T15:08:13;20.40;1.00
774;DHT22;370;48.810;9.150;2023-03-23T15:10:41;20.10;1.00
774;DHT22;370;48.810;9.150;2023-03-23T15:13:11;20.20;1.00
774;DHT22;370;48.810;9.150;2023-03-23T15:15:38;20.20;1.00
774;DHT22;370;48.810;9.150;2023-03-23T15:18:29;20.10;1.00
774;DHT22;370;48.810;9.150;2023-03-23T15:21:08;20.10;1.00
774;DHT22;370;48.810;9.150;2023-03-23T15:23:41;20.00;1.00
774;DHT22;370;48.810;9.150;2023-03-23T15:26:21;19.90;1.00
774;DHT22;370;48.810;9.150;2023-03-23T15:28:49;19.90;1.00
774;DHT22;370;48.810;9.150;2023-03-23T15:31:16;19.60;1.00
774;DHT22;370;48.810;9.150;2023-03-23T15:33:43;19.60;1.00
774;DHT22;370;48.810;9.150;2023-03-23T15:36:16;19.50;1.00
774;DHT22;370;48.810;9.150;2023-03-23T15:38:45;19.30;1.00
774;DHT22;370;48.810;9.150;2023-03-23T15:41:22;19.20;1.00
774;DHT22;370;48.810;9.150;2023-03-23T15:43:51;19.30;1.00
774;DHT22;370;48.810;9.150;2023-03-23T15:46:22;19.30;1.00
774;DHT22;370;48.810;9.150;2023-03-23T15:48:51;19.30;1.00
774;DHT22;370;48.810;9.150;2023-03-23T15:51:23;19.10;1.00
774;DHT22;370;48.810;9.150;2023-03-23T15:53:50;18.90;1.00
774;DHT22;370;48.810;9.150;2023-03-23T15:56:18;19.00;1.00
774;DHT22;370;48.810;9.150;2023-03-23T15:58:46;19.00;1.00
774;DHT22;370;48.810;9.150;2023-03-23T16:01:15;19.00;1.00
774;DHT22;370;48.810;9.150;2023-03-23T16:03:46;18.80;1.00
774;DHT22;370;48.810;9.150;2023-03-23T16:06:15;18.70;1.00
774;DHT22;370;48.810;9.150;2023-03-23T16:08:44;18.80;1.00
774;DHT22;370;48.810;9.150;2023-03-23T16:11:11;18.70;1.00
774;DHT22;370;48.810;9.150;2023-03-23T16:13:39;18.80;1.00
774;DHT22;370;48.810;9.150;2023-03-23T16:16:10;18.60;1.00
774;DHT22;370;48.810;9.150;2023-03-23T16:18:39;18.60;1.00
774;DHT22;370;48.810;9.150;2023-03-23T16:21:06;18.50;1.00
774;DHT22;370;48.810;9.150;2023-03-23T16:23:33;18.40;1.00
774;DHT22;370;48.810;9.150;2023-03-23T16:26:02;18.30;1.00
774;DHT22;370;48.810;9.150;2023-03-23T16:28:29;18.30;1.00
774;DHT22;370;48.810;9.150;2023-03-23T16:30:55;18.30;1.00
774;DHT22;370;48.810;9.150;2023-03-23T16:33:22;18.30;1.00
774;DHT22;370;48.810;9.150;2023-03-23T16:35:49;18.20;1.00
774;DHT22;370;48.810;9.150;2023-03-23T16:38:16;18.20;1.00
774;DHT22;370;48.810;9.150;2023-03-23T16:40:45;18.10;1.00
774;DHT22;370;48.810;9.150;2023-03-23T16:43:13;18.10;1.00
774;DHT22;370;48.810;9.150;2023-03-23T16:45:42;17.90;1.00
774;DHT22;370;48.810;9.150;2023-03-23T16:48:09;17.90;1.00
774;DHT22;370;48.810;9.150;2023-03-23T16:50:37;17.90;1.00
774;DHT22;370;48.810;9.150;2023-03-23T16:53:04;17.90;1.00
774;DHT22;370;48.810;9.150;2023-03-23T16:55:32;18.00;1.00
774;DHT22;370;48.810;9.150;2023-03-23T16:57:59;17.90;1.00
774;DHT22;370;48.810;9.150;2023-03-23T17:00:28;17.90;1.00
774;DHT22;370;48.810;9.150;2023-03-23T17:02:55;17.90;1.00
774;DHT22;370;48.810;9.150;2023-03-23T17:05:23;17.80;1.00
774;DHT22;370;48.810;9.150;2023-03-23T17:07:51;17.70;1.00
774;DHT22;370;48.810;9.150;2023-03-23T17:10:20;17.70;1.00
774;DHT22;370;48.810;9.150;2023-03-23T17:12:47;17.60;1.00
774;DHT22;370;48.810;9.150;2023-03-23T17:15:14;17.60;1.00
774;DHT22;370;48.810;9.150;2023-03-23T17:17:42;17.50;1.00